Time;durP1;ratioP1;P1;durP2;ratioP2;P2;SDS_P1;SDS_P2;PMS_P1;PMS_P2;Temp;Humidity;BMP_temperature;BMP_pressure;BME280_temperature;BME280_humidity;BME280_pressure;Samples;Min_cycle;Max_cycle;Signal;HPM_P1;HPM_P2
2023/06/21 00:02:06;;;;;;;10.75;6.55;;;;;;;18.99;92.45;97123.06;4987045;28;20493;-63
2023/06/21 00:08:15;;;;;;;12.35;7.20;;;;;;;18.86;92.46;97113.75;4986624;28;20139;-63
2023/06/21 00:10:41;;;;;;;10.93;7.45;;;;;;;18.72;93.62;97113.81;4987245;28;20050;-63
2023/06/21 00:13:08;;;;;;;11.32;6.40;;;;;;;18.81;93.12;97113.88;4985326;28;20042;-63
2023/06/21 00:15:36;;;;;;;14.18;7.22;;;;;;;18.86;92.41;97111.00;4986628;28;20386;-63
2023/06/21 00:18:03;;;;;;;10.60;6.35;;;;;;;18.66;94.05;97113.16;4987962;28;20494;-62
2023/06/21 00:20:29;;;;;;;12.85;7.15;;;;;;;18.72;93.97;97111.06;4981201;28;20043;-62
2023/06/21 00:22:56;;;;;;;15.13;6.93;;;;;;;18.83;92.78;97109.72;4987598;28;20038;-63
2023/06/21 00:25:26;;;;;;;10.38;6.25;;;;;;;19.01;91.26;97104.31;4986466;28;20046;-63
2023/06/21 00:27:52;;;;;;;17.05;6.88;;;;;;;18.69;93.16;97103.50;4986733;28;20064;-63
2023/06/21 00:30:19;;;;;;;13.13;7.45;;;;;;;18.48;94.47;97097.69;4987445;28;20041;-63
2023/06/21 00:32:45;;;;;;;11.23;6.40;;;;;;;18.18;97.00;97104.38;4970227;28;20249;-63
2023/06/21 00:35:13;;;;;;;9.48;6.72;;;;;;;18.12;97.60;97115.75;4988234;28;20046;-63
2023/06/21 00:37:39;;;;;;;9.57;6.82;;;;;;;18.27;97.17;97109.94;4973111;28;20141;-63
2023/06/21 00:40:11;;;;;;;10.73;7.55;;;;;;;18.28;96.17;97113.50;4967990;28;20053;-63
2023/06/21 00:42:38;;;;;;;11.13;7.10;;;;;;;18.30;96.45;97120.28;4985885;28;20069;-63
2023/06/21 00:45:06;;;;;;;11.73;7.20;;;;;;;18.27;96.16;97129.13;4985912;28;20046;-63
2023/06/21 00:47:32;;;;;;;11.48;7.05;;;;;;;18.30;96.53;97131.25;4989833;28;20058;-62
2023/06/21 00:50:00;;;;;;;10.77;6.53;;;;;;;18.36;95.92;97123.72;4989254;28;20509;-62
2023/06/21 00:52:26;;;;;;;14.05;6.97;;;;;;;18.40;95.50;97132.97;4975111;28;20050;-63
2023/06/21 00:54:53;;;;;;;10.10;7.22;;;;;;;18.42;95.30;97138.09;4970184;28;20076;-63
2023/06/21 00:57:20;;;;;;;11.85;7.35;;;;;;;18.38;95.16;97137.09;4988502;28;20033;-64
2023/06/21 00:59:46;;;;;;;11.02;7.53;;;;;;;18.47;95.44;97140.75;4986096;28;20437;-63
2023/06/21 01:02:13;;;;;;;8.68;6.68;;;;;;;18.55;94.95;97140.00;4984688;28;20038;-63
2023/06/21 01:04:41;;;;;;;10.98;6.68;;;;;;;18.60;93.82;97144.53;4985782;28;20066;-63
2023/06/21 01:07:37;;;;;;;13.75;7.13;;;;;;;18.49;94.40;97146.72;4987562;28;20125;-63
2023/06/21 01:10:10;;;;;;;11.07;6.93;;;;;;;18.64;93.81;97142.81;4985194;28;20096;-63
2023/06/21 01:13:03;;;;;;;11.38;6.50;;;;;;;18.67;92.61;97138.63;4967773;28;20073;-62
2023/06/21 01:15:39;;;;;;;10.60;7.38;;;;;;;18.48;94.42;97138.81;4980982;28;20117;-63
2023/06/21 01:18:09;;;;;;;9.07;7.18;;;;;;;18.26;95.58;97148.59;4969752;28;20046;-63
2023/06/21 01:20:37;;;;;;;10.95;7.90;;;;;;;18.26;96.09;97154.09;4968179;28;20042;-64
2023/06/21 01:23:27;;;;;;;11.15;7.47;;;;;;;18.09;97.18;97150.06;4988169;28;20339;-62
2023/06/21 01:26:28;;;;;;;11.52;7.75;;;;;;;18.09;97.32;97152.00;4967393;28;20042;-63
2023/06/21 01:29:14;;;;;;;11.75;7.95;;;;;;;17.92;98.72;97153.41;4987040;28;20053;-64
2023/06/21 01:31:43;;;;;;;10.65;7.50;;;;;;;18.03;97.93;97151.28;4971811;28;20100;-63
2023/06/21 01:34:10;;;;;;;12.85;8.23;;;;;;;18.01;97.92;97150.75;4988415;28;20039;-63
2023/06/21 01:36:39;;;;;;;14.65;9.07;;;;;;;18.07;97.52;97160.50;4972122;28;20042;-63
2023/06/21 01:39:09;;;;;;;11.45;7.43;;;;;;;18.10;97.43;97156.34;4975000;28;20054;-63
2023/06/21 01:41:39;;;;;;;14.05;7.90;;;;;;;18.07;97.54;97157.75;4989423;28;20050;-63
2023/06/21 01:44:09;;;;;;;9.70;7.63;;;;;;;18.11;97.25;97163.44;4972600;28;20058;-63
2023/06/21 01:46:36;;;;;;;10.82;8.40;;;;;;;18.05;97.58;97166.28;4971507;28;20046;-64
2023/06/21 01:49:06;;;;;;;11.52;8.25;;;;;;;18.01;97.48;97173.47;4973132;28;20050;-64
2023/06/21 01:51:38;;;;;;;11.30;7.57;;;;;;;17.99;98.00;97178.44;4991177;28;20125;-64
2023/06/21 01:54:05;;;;;;;12.18;8.55;;;;;;;18.03;97.58;97178.66;4967603;28;20501;-63
2023/06/21 01:56:33;;;;;;;10.20;8.00;;;;;;;17.94;98.17;97182.13;4987183;28;20514;-64
2023/06/21 01:59:01;;;;;;;13.43;9.13;;;;;;;17.89;98.33;97184.97;4972076;28;20042;-63
2023/06/21 02:01:30;;;;;;;9.77;8.20;;;;;;;17.87;98.71;97187.19;4973520;28;20047;-64
2023/06/21 02:03:59;;;;;;;10.95;7.55;;;;;;;17.95;98.30;97199.38;4988826;28;20409;-64
2023/06/21 02:06:30;;;;;;;9.95;7.50;;;;;;;17.95;98.20;97199.38;4989832;28;20077;-64
2023/06/21 02:09:00;;;;;;;9.70;7.32;;;;;;;18.09;97.24;97213.06;4990252;28;20046;-63
2023/06/21 02:11:27;;;;;;;9.65;7.38;;;;;;;18.08;97.24;97197.75;4988768;28;20478;-63
2023/06/21 02:13:57;;;;;;;15.82;8.00;;;;;;;18.07;97.43;97207.06;4986534;28;20061;-63
2023/06/21 02:16:28;;;;;;;10.85;7.50;;;;;;;17.93;97.82;97212.53;4972988;28;20560;-64
2023/06/21 02:22:41;;;;;;;9.90;7.45;;;;;;;17.89;98.61;97215.09;4987483;28;20073;-63
2023/06/21 02:25:10;;;;;;;10.65;7.57;;;;;;;18.05;97.55;97199.16;4991498;28;20076;-63
2023/06/21 02:27:37;;;;;;;11.05;8.07;;;;;;;18.16;97.04;97201.69;4971174;28;20049;-63
2023/06/21 02:30:05;;;;;;;12.68;8.55;;;;;;;18.20;96.48;97197.22;4969814;28;20465;-64
2023/06/21 02:32:32;;;;;;;10.13;7.88;;;;;;;18.25;96.39;97207.28;4983353;28;20042;-64
2023/06/21 02:34:59;;;;;;;10.32;8.05;;;;;;;17.93;98.26;97216.09;4990715;28;20529;-63
2023/06/21 02:37:29;;;;;;;11.05;7.72;;;;;;;17.95;98.25;97218.53;4972807;28;20149;-64
2023/06/21 02:39:57;;;;;;;10.90;7.82;;;;;;;17.91;97.81;97214.78;4990878;28;20502;-64
2023/06/21 02:42:26;;;;;;;11.90;8.05;;;;;;;17.85;98.52;97219.56;4988264;28;20053;-63
2023/06/21 02:44:53;;;;;;;10.98;7.82;;;;;;;17.93;98.23;97220.75;4987806;28;20129;-63
2023/06/21 02:47:20;;;;;;;10.13;7.60;;;;;;;17.99;98.61;97227.75;4976419;28;20042;-64
2023/06/21 02:49:46;;;;;;;12.95;7.97;;;;;;;18.00;97.62;97218.44;4993143;28;20053;-63
2023/06/21 02:52:14;;;;;;;11.15;8.13;;;;;;;18.09;97.63;97221.28;4972832;28;20073;-64
2023/06/21 02:54:40;;;;;;;13.38;8.73;;;;;;;18.01;97.59;97213.75;4989541;28;20041;-63
2023/06/21 02:57:08;;;;;;;11.40;8.18;;;;;;;17.42;100.00;97226.06;4990488;28;20046;-63
2023/06/21 02:59:37;;;;;;;12.45;9.00;;;;;;;17.24;100.00;97238.69;4970817;28;20057;-63
2023/06/21 03:02:04;;;;;;;14.10;9.15;;;;;;;17.21;100.00;97242.81;4988656;28;20050;-63
2023/06/21 03:04:30;;;;;;;11.88;8.40;;;;;;;17.50;100.00;97250.00;4989049;28;20057;-63
2023/06/21 03:06:57;;;;;;;11.57;8.15;;;;;;;17.81;99.85;97254.94;4989416;28;20137;-64
2023/06/21 03:09:25;;;;;;;10.45;8.48;;;;;;;17.89;98.84;97256.16;4968909;28;20074;-63
2023/06/21 03:11:52;;;;;;;12.25;8.98;;;;;;;17.79;99.80;97251.69;4988388;28;20046;-62
2023/06/21 03:14:18;;;;;;;11.63;8.75;;;;;;;17.65;100.00;97268.09;4971535;28;20041;-63
2023/06/21 03:16:45;;;;;;;13.15;9.38;;;;;;;17.66;100.00;97257.97;4989033;28;20050;-63
2023/06/21 03:19:12;;;;;;;12.57;9.20;;;;;;;17.66;100.00;97264.22;4975019;28;20046;-63
2023/06/21 03:21:39;;;;;;;15.80;8.75;;;;;;;17.70;100.00;97277.31;4970324;28;20057;-64
2023/06/21 03:24:06;;;;;;;12.40;8.75;;;;;;;17.80;100.00;97282.63;4986712;28;20123;-63
2023/06/21 03:26:35;;;;;;;13.88;8.57;;;;;;;17.86;100.00;97300.59;4966871;28;20050;-64
2023/06/21 03:29:02;;;;;;;13.73;8.85;;;;;;;17.92;100.00;97329.50;4971557;28;20046;-62
2023/06/21 03:31:29;;;;;;;10.48;7.95;;;;;;;18.17;99.37;97420.59;4969496;28;20048;-63
2023/06/21 03:33:56;;;;;;;18.10;9.45;;;;;;;18.20;100.00;97465.78;4968940;28;20034;-62
2023/06/21 03:36:26;;;;;;;;;;;;;;;17.80;100.00;97493.50;4969309;28;20046;-64
2023/06/21 03:38:53;;;;;;;19.98;10.52;;;;;;;17.52;100.00;97417.50;4971329;28;20116;-64
2023/06/21 03:41:20;;;;;;;14.95;10.32;;;;;;;17.57;100.00;97391.97;4967580;28;20053;-64
2023/06/21 03:43:47;;;;;;;25.42;10.70;;;;;;;17.37;100.00;97418.56;4970508;28;20041;-63
2023/06/21 03:46:14;;;;;;;16.10;9.50;;;;;;;17.36;100.00;97455.22;4972627;28;20061;-63
2023/06/21 03:48:41;;;;;;;17.63;9.57;;;;;;;17.18;100.00;97448.63;4970039;28;20048;-63
2023/06/21 03:51:07;;;;;;;13.68;9.50;;;;;;;17.22;100.00;97462.53;4973568;28;20141;-64
2023/06/21 03:53:35;;;;;;;17.67;10.65;;;;;;;17.22;100.00;97466.09;4969988;28;20042;-63
2023/06/21 03:56:01;;;;;;;16.77;10.60;;;;;;;17.21;100.00;97452.69;4989249;28;20053;-63
2023/06/21 03:58:28;;;;;;;15.82;10.05;;;;;;;17.29;100.00;97468.47;4969075;28;20046;-63
2023/06/21 04:00:55;;;;;;;13.73;9.70;;;;;;;17.32;100.00;97478.81;4968822;28;20073;-64
2023/06/21 04:03:21;;;;;;;18.77;10.57;;;;;;;17.33;100.00;97476.88;4987199;28;20042;-64
2023/06/21 04:05:48;;;;;;;16.83;10.50;;;;;;;17.27;100.00;97467.94;4968325;28;20155;-63
2023/06/21 04:08:14;;;;;;;15.90;9.73;;;;;;;17.19;100.00;97463.09;4988179;28;20137;-64
2023/06/21 04:10:41;;;;;;;18.40;11.40;;;;;;;17.24;100.00;97446.63;4969443;28;20045;-64
2023/06/21 04:13:08;;;;;;;15.10;10.50;;;;;;;17.28;100.00;97453.13;4971859;28;20270;-64
2023/06/21 04:15:35;;;;;;;15.10;9.88;;;;;;;17.26;100.00;97447.97;4969552;28;20050;-63
2023/06/21 04:18:02;;;;;;;13.82;9.43;;;;;;;17.10;100.00;97454.75;4989551;28;20045;-64
2023/06/21 04:20:30;;;;;;;20.17;13.13;;;;;;;17.31;100.00;97481.84;4970364;28;20038;-63
2023/06/21 04:22:57;;;;;;;12.52;9.07;;;;;;;17.23;100.00;97472.34;4987384;28;20054;-64
2023/06/21 04:25:24;;;;;;;15.05;10.10;;;;;;;17.13;100.00;97460.44;4974117;28;20038;-64
2023/06/21 04:27:54;;;;;;;12.15;9.30;;;;;;;16.97;100.00;97465.25;4970775;28;20417;-64
2023/06/21 04:30:21;;;;;;;21.83;10.02;;;;;;;16.90;100.00;97441.00;4971799;28;20538;-63
2023/06/21 04:32:47;;;;;;;15.18;8.75;;;;;;;17.07;100.00;97449.88;4985911;28;20505;-64
2023/06/21 04:35:16;;;;;;;14.48;8.57;;;;;;;17.13;100.00;97467.81;4986913;28;20060;-64
2023/06/21 04:37:44;;;;;;;13.93;9.05;;;;;;;17.17;100.00;97455.19;4985959;28;20053;-63
2023/06/21 04:40:16;;;;;;;16.67;9.98;;;;;;;17.26;100.00;97480.00;4990345;28;20097;-63
2023/06/21 04:42:54;;;;;;;17.35;10.52;;;;;;;17.34;100.00;97489.47;4988703;28;20066;-64
2023/06/21 04:45:21;;;;;;;24.60;10.88;;;;;;;17.39;100.00;97492.94;4989221;28;20096;-63
2023/06/21 04:47:48;;;;;;;16.50;8.88;;;;;;;17.34;100.00;97475.78;4989628;28;20042;-63
2023/06/21 04:50:16;;;;;;;14.45;9.45;;;;;;;17.35;100.00;97474.66;4988618;28;20451;-63
2023/06/21 04:52:48;;;;;;;17.63;10.88;;;;;;;17.52;100.00;97502.38;4984104;28;20494;-63
2023/06/21 04:55:20;;;;;;;17.98;10.02;;;;;;;17.57;100.00;97506.16;4988095;28;20038;-64
2023/06/21 04:57:48;;;;;;;18.98;10.20;;;;;;;17.44;100.00;97488.53;4989415;28;20042;-63
2023/06/21 05:00:15;;;;;;;17.88;10.90;;;;;;;17.41;100.00;97498.97;4987146;28;20038;-63
2023/06/21 05:02:42;;;;;;;14.10;10.13;;;;;;;17.21;100.00;97474.59;4985338;28;20516;-63
2023/06/21 05:05:09;;;;;;;12.55;9.25;;;;;;;17.31;100.00;97503.75;4988959;28;20058;-63
2023/06/21 05:07:37;;;;;;;18.65;11.68;;;;;;;17.46;100.00;97511.75;4990656;28;20065;-63
2023/06/21 05:10:07;;;;;;;16.63;11.55;;;;;;;17.48;100.00;97528.72;4990678;28;20712;-64
2023/06/21 05:12:35;;;;;;;15.35;9.80;;;;;;;17.35;100.00;97524.75;4991637;28;20481;-64
2023/06/21 05:15:02;;;;;;;17.38;10.75;;;;;;;17.43;100.00;97523.28;4991389;28;20034;-62
2023/06/21 05:17:29;;;;;;;19.60;11.32;;;;;;;17.50;100.00;97515.53;4991834;28;20038;-63
2023/06/21 05:19:55;;;;;;;15.20;10.65;;;;;;;17.45;100.00;97510.13;4991647;28;20778;-63
2023/06/21 05:22:22;;;;;;;19.08;11.07;;;;;;;17.54;100.00;97513.81;4987447;28;20042;-64
2023/06/21 05:24:48;;;;;;;17.65;10.50;;;;;;;17.61;100.00;97534.56;4990884;28;20569;-62
2023/06/21 05:27:15;;;;;;;13.98;9.68;;;;;;;17.60;100.00;97527.44;4989529;28;20046;-64
2023/06/21 05:29:42;;;;;;;19.55;10.60;;;;;;;17.63;100.00;97527.69;4990105;28;20042;-63
2023/06/21 05:32:08;;;;;;;19.52;11.00;;;;;;;17.72;100.00;97527.03;4988040;28;20050;-63
2023/06/21 05:34:35;;;;;;;18.38;9.98;;;;;;;17.76;100.00;97523.38;4989597;28;20629;-64
2023/06/21 05:37:01;;;;;;;15.82;10.80;;;;;;;17.90;100.00;97528.13;4990838;28;20441;-64
2023/06/21 05:39:28;;;;;;;15.23;10.25;;;;;;;17.87;100.00;97482.19;4991561;28;20060;-63
2023/06/21 05:41:55;;;;;;;13.98;9.15;;;;;;;17.78;100.00;97435.47;4990336;28;20039;-64
2023/06/21 05:44:21;;;;;;;11.77;8.45;;;;;;;17.78;100.00;97400.69;4990747;28;20528;-63
2023/06/21 05:46:48;;;;;;;15.57;10.15;;;;;;;18.03;100.00;97436.97;4989579;28;20049;-64
2023/06/21 05:49:14;;;;;;;12.68;9.75;;;;;;;18.18;100.00;97451.56;4988194;28;20042;-63
2023/06/21 05:51:41;;;;;;;16.75;9.73;;;;;;;18.25;100.00;97452.00;4994371;28;20046;-64
2023/06/21 05:54:07;;;;;;;14.95;9.25;;;;;;;18.37;100.00;97448.78;4988711;28;20452;-62
2023/06/21 05:56:37;;;;;;;13.88;8.43;;;;;;;18.29;100.00;97409.19;4986599;28;20066;-64
2023/06/21 05:59:04;;;;;;;13.82;7.60;;;;;;;18.31;100.00;97401.44;4989222;28;20046;-63
2023/06/21 06:01:30;;;;;;;13.13;8.18;;;;;;;18.32;100.00;97400.34;4992046;28;20043;-63
2023/06/21 06:03:57;;;;;;;13.90;8.23;;;;;;;18.58;100.00;97420.97;4989985;28;20042;-64
2023/06/21 06:06:35;;;;;;;11.32;8.20;;;;;;;18.76;100.00;97421.19;4997072;28;20038;-64
2023/06/21 06:09:02;;;;;;;13.65;7.63;;;;;;;18.61;100.00;97405.84;4990533;28;20042;-64
2023/06/21 06:11:29;;;;;;;15.55;9.07;;;;;;;18.79;100.00;97432.34;4988602;28;20161;-63
2023/06/21 06:13:55;;;;;;;11.90;8.63;;;;;;;18.80;100.00;97417.50;4992808;28;20038;-64
2023/06/21 06:16:22;;;;;;;14.07;8.43;;;;;;;19.01;100.00;97425.34;4991548;28;20068;-64
2023/06/21 06:18:48;;;;;;;13.40;8.00;;;;;;;19.04;100.00;97400.03;4993310;28;20042;-64
2023/06/21 06:21:15;;;;;;;12.63;8.60;;;;;;;19.07;100.00;97406.88;4995543;28;20042;-64
2023/06/21 06:23:41;;;;;;;10.07;8.05;;;;;;;19.17;100.00;97423.09;4991426;28;20417;-62
2023/06/21 06:26:08;;;;;;;12.10;7.20;;;;;;;19.34;100.00;97418.91;4999160;28;20048;-61
2023/06/21 06:28:36;;;;;;;10.98;7.78;;;;;;;19.53;100.00;97412.47;4991473;28;20050;-63
2023/06/21 06:31:03;;;;;;;11.07;7.57;;;;;;;19.71;100.00;97421.63;4991543;28;20413;-62
2023/06/21 06:33:29;;;;;;;12.13;8.65;;;;;;;19.89;100.00;97408.84;4993841;28;20520;-62
2023/06/21 06:35:56;;;;;;;13.20;7.10;;;;;;;20.17;100.00;97414.25;5000234;28;20054;-61
2023/06/21 06:38:22;;;;;;;10.85;5.35;;;;;;;20.23;100.00;97404.72;4991848;28;20420;-62
2023/06/21 06:40:49;;;;;;;10.48;5.97;;;;;;;20.20;100.00;97401.81;4996997;28;20490;-62
2023/06/21 06:43:15;;;;;;;7.78;5.13;;;;;;;20.39;100.00;97410.63;4991620;28;20047;-62
2023/06/21 06:45:42;;;;;;;9.02;5.28;;;;;;;20.46;100.00;97412.94;4991650;28;20033;-62
2023/06/21 06:48:08;;;;;;;7.32;4.30;;;;;;;20.65;100.00;97414.63;4992261;28;20039;-62
2023/06/21 06:50:38;;;;;;;7.40;4.38;;;;;;;20.70;99.28;97403.50;4992803;28;20046;-62
2023/06/21 06:53:05;;;;;;;7.38;4.10;;;;;;;20.67;100.00;97404.94;4995800;28;20065;-63
2023/06/21 06:55:32;;;;;;;8.70;4.18;;;;;;;20.65;100.00;97409.94;4993889;28;20056;-62
2023/06/21 06:57:58;;;;;;;6.70;4.05;;;;;;;20.66;99.56;97414.31;4998678;28;20048;-61
2023/06/21 07:00:31;;;;;;;9.48;4.30;;;;;;;20.72;98.67;97414.19;4997738;28;20065;-62
2023/06/21 07:02:58;;;;;;;8.65;4.32;;;;;;;20.81;97.48;97412.25;4989669;28;20569;-62
2023/06/21 07:05:25;;;;;;;7.40;4.65;;;;;;;20.87;99.58;97408.28;4993138;28;20101;-62
2023/06/21 07:07:54;;;;;;;8.57;4.65;;;;;;;20.93;99.24;97408.91;4991338;28;20050;-62
2023/06/21 07:10:21;;;;;;;6.78;4.47;;;;;;;20.80;99.66;97407.91;4993565;28;20116;-62
2023/06/21 07:12:48;;;;;;;6.50;4.10;;;;;;;20.83;100.00;97401.75;4997881;28;20108;-62
2023/06/21 07:15:15;;;;;;;8.27;4.93;;;;;;;20.93;100.00;97400.66;5003061;28;20090;-62
2023/06/21 07:17:41;;;;;;;8.05;4.57;;;;;;;20.92;99.88;97405.38;4992775;28;20879;-61
2023/06/21 07:20:08;;;;;;;9.68;4.72;;;;;;;20.90;95.56;97406.81;4992790;28;20042;-62
2023/06/21 07:22:35;;;;;;;7.78;4.03;;;;;;;21.14;96.88;97409.16;4985776;28;20050;-62
2023/06/21 07:25:02;;;;;;;7.55;3.88;;;;;;;21.32;96.56;97414.69;4991936;28;20057;-62
2023/06/21 07:27:29;;;;;;;7.10;4.35;;;;;;;21.41;96.15;97417.44;4990235;28;20513;-62
2023/06/21 07:29:56;;;;;;;8.02;3.92;;;;;;;21.54;90.99;97426.69;4989797;28;20042;-62
2023/06/21 07:32:23;;;;;;;8.07;3.75;;;;;;;21.62;89.70;97425.88;4990954;28;20141;-62
2023/06/21 07:34:53;;;;;;;6.82;3.95;;;;;;;21.44;90.81;97419.53;4991512;28;20117;-60
2023/06/21 07:37:20;;;;;;;8.85;4.28;;;;;;;21.30;91.74;97411.44;4995071;28;20044;-62
2023/06/21 07:39:46;;;;;;;8.00;3.63;;;;;;;21.32;92.28;97409.16;4994631;28;20094;-62
2023/06/21 07:42:22;;;;;;;6.93;4.13;;;;;;;21.29;89.51;97402.38;4991627;28;20041;-63
2023/06/21 07:44:50;;;;;;;7.00;4.18;;;;;;;21.24;90.60;97396.19;4989896;28;20042;-62
2023/06/21 07:47:18;;;;;;;7.55;4.65;;;;;;;21.27;91.46;97398.31;4991329;28;20046;-63
2023/06/21 07:49:44;;;;;;;8.25;3.58;;;;;;;21.55;89.69;97395.25;4990125;28;20117;-63
2023/06/21 07:52:11;;;;;;;7.72;3.40;;;;;;;21.69;91.75;97390.41;4995631;28;20536;-62
2023/06/21 07:54:38;;;;;;;7.32;3.50;;;;;;;21.70;88.73;97402.22;4999676;28;20038;-62
2023/06/21 07:57:05;;;;;;;5.88;3.30;;;;;;;21.82;90.72;97420.88;5002901;28;20034;-62
2023/06/21 07:59:32;;;;;;;7.68;3.70;;;;;;;21.73;89.91;97418.13;4989634;28;20049;-62
2023/06/21 08:01:58;;;;;;;8.15;3.60;;;;;;;21.70;89.90;97419.56;4989112;28;20047;-62
2023/06/21 08:04:25;;;;;;;7.75;3.63;;;;;;;21.88;92.16;97436.13;4988081;28;20045;-61
2023/06/21 08:06:51;;;;;;;6.55;3.78;;;;;;;22.08;87.20;97434.63;4987511;28;20046;-62
2023/06/21 08:09:18;;;;;;;6.13;3.58;;;;;;;22.35;87.61;97451.94;4991657;28;20035;-62
2023/06/21 08:11:44;;;;;;;8.20;3.95;;;;;;;22.20;89.21;97439.50;4994526;28;20050;-62
2023/06/21 08:14:11;;;;;;;8.40;3.28;;;;;;;22.06;83.80;97461.72;4994274;28;20053;-63
2023/06/21 08:16:38;;;;;;;7.63;3.58;;;;;;;22.21;85.24;97454.06;4992077;28;20117;-62
2023/06/21 08:19:04;;;;;;;6.35;3.40;;;;;;;;;;4990046;28;20065;-61
2023/06/21 08:21:31;;;;;;;5.57;3.28;;;;;;;22.05;87.20;97473.91;4988342;28;20550;-62
2023/06/21 08:23:57;;;;;;;6.30;3.70;;;;;;;22.08;88.86;97472.44;4988908;28;20585;-61
2023/06/21 08:26:24;;;;;;;7.13;3.53;;;;;;;22.07;89.29;97479.06;4997073;28;20038;-62
2023/06/21 08:28:50;;;;;;;5.15;3.25;;;;;;;21.98;88.68;97481.00;4998172;28;20046;-61
2023/06/21 08:31:17;;;;;;;8.45;3.53;;;;;;;21.92;87.11;97474.84;5001529;28;20045;-62
2023/06/21 08:33:43;;;;;;;6.13;2.92;;;;;;;21.74;87.99;97476.81;4988841;28;20065;-61
2023/06/21 08:36:11;;;;;;;7.65;3.20;;;;;;;21.71;88.12;97472.72;4991286;28;20041;-62
2023/06/21 08:38:38;;;;;;;6.32;2.83;;;;;;;21.79;88.14;97482.16;4990353;28;20557;-62
2023/06/21 08:41:05;;;;;;;6.47;3.05;;;;;;;21.66;91.59;97486.66;4987572;28;20096;-62
2023/06/21 08:43:31;;;;;;;7.88;2.90;;;;;;;21.50;91.64;97483.56;4997405;28;20042;-62
2023/06/21 08:46:03;;;;;;;6.18;2.97;;;;;;;21.49;93.34;97488.25;4995249;28;20030;-61
2023/06/21 08:48:36;;;;;;;5.75;3.35;;;;;;;21.46;94.32;97475.13;4989266;28;20046;-62
2023/06/21 08:51:04;;;;;;;5.57;3.08;;;;;;;21.50;94.42;97470.59;4993519;28;20053;-61
2023/06/21 08:53:33;;;;;;;6.57;3.35;;;;;;;21.48;97.28;97478.38;4990023;28;20045;-62
2023/06/21 08:56:00;;;;;;;8.57;4.07;;;;;;;21.39;100.00;97477.53;4988817;28;20097;-63
2023/06/21 08:58:29;;;;;;;7.65;3.78;;;;;;;21.00;100.00;97486.34;4989494;28;20416;-62
2023/06/21 09:00:58;;;;;;;7.82;3.10;;;;;;;20.96;100.00;97473.56;4991192;28;20042;-62
2023/06/21 09:03:29;;;;;;;8.65;3.90;;;;;;;20.82;100.00;97479.91;4996784;28;20042;-62
2023/06/21 09:06:00;;;;;;;9.63;4.35;;;;;;;20.73;100.00;97479.88;4990414;28;20097;-62
2023/06/21 09:08:27;;;;;;;12.02;4.43;;;;;;;20.71;100.00;97473.09;4987502;28;20050;-63
2023/06/21 09:10:53;;;;;;;9.00;3.72;;;;;;;20.69;100.00;97469.81;4988488;28;20056;-62
2023/06/21 09:13:22;;;;;;;6.18;3.50;;;;;;;20.62;100.00;97465.59;4994863;28;20046;-62
2023/06/21 09:15:51;;;;;;;6.63;3.55;;;;;;;20.57;100.00;97446.50;4988701;28;20039;-62
2023/06/21 09:18:18;;;;;;;6.93;3.30;;;;;;;20.50;100.00;97421.38;4988905;28;20046;-61
2023/06/21 09:20:50;;;;;;;6.05;3.55;;;;;;;20.43;100.00;97421.81;4988061;28;20052;-63
2023/06/21 09:23:17;;;;;;;13.75;3.88;;;;;;;20.33;100.00;97425.66;4998924;28;20051;-62
2023/06/21 09:25:48;;;;;;;7.10;3.33;;;;;;;20.28;100.00;97434.81;4987929;28;20052;-63
2023/06/21 09:28:14;;;;;;;6.85;3.65;;;;;;;20.21;100.00;97433.66;4989401;28;20042;-62
2023/06/21 09:30:41;;;;;;;11.13;3.83;;;;;;;20.17;100.00;97441.72;4989467;28;20050;-62
2023/06/21 09:33:10;;;;;;;7.43;3.30;;;;;;;20.13;100.00;97447.03;4989700;28;20046;-62
2023/06/21 09:35:41;;;;;;;8.13;3.50;;;;;;;19.99;100.00;97452.63;4983142;28;20038;-61
2023/06/21 09:38:23;;;;;;;8.77;3.85;;;;;;;19.99;100.00;97449.03;4988445;28;20039;-62
2023/06/21 09:40:50;;;;;;;6.70;3.95;;;;;;;19.99;100.00;97443.53;4991095;28;20476;-63
2023/06/21 09:43:18;;;;;;;7.68;3.78;;;;;;;19.99;100.00;97446.28;4991421;28;20438;-62
2023/06/21 09:46:04;;;;;;;10.30;4.88;;;;;;;19.99;100.00;97429.81;4994052;28;20041;-61
2023/06/21 09:48:35;;;;;;;11.18;4.82;;;;;;;19.85;100.00;97429.84;4993737;28;20069;-62
2023/06/21 09:51:03;;;;;;;14.35;4.50;;;;;;;19.78;100.00;97459.69;4996192;28;20049;-62
2023/06/21 09:53:31;;;;;;;9.48;4.47;;;;;;;19.74;100.00;97493.28;4991367;28;20046;-61
2023/06/21 09:56:00;;;;;;;6.65;3.38;;;;;;;19.76;100.00;97509.44;4991365;28;20050;-62
2023/06/21 09:58:30;;;;;;;6.97;4.40;;;;;;;19.74;100.00;97514.41;4992624;28;20048;-61
2023/06/21 10:00:57;;;;;;;8.27;4.43;;;;;;;19.61;100.00;97532.56;4999486;28;20065;-61
2023/06/21 10:03:26;;;;;;;6.05;3.65;;;;;;;19.70;100.00;97535.38;4995762;28;20045;-62
2023/06/21 10:05:54;;;;;;;9.77;4.20;;;;;;;19.59;100.00;97551.28;4996677;28;20085;-62
2023/06/21 10:08:28;;;;;;;9.40;4.65;;;;;;;19.56;100.00;97555.44;4991790;28;20502;-62
2023/06/21 10:10:55;;;;;;;6.65;3.60;;;;;;;19.43;100.00;97548.03;4992505;28;20034;-62
2023/06/21 10:13:32;;;;;;;11.82;4.10;;;;;;;19.41;100.00;97561.25;4993080;28;20056;-62
2023/06/21 10:16:01;;;;;;;8.18;3.80;;;;;;;19.36;100.00;97557.47;4996663;28;20120;-62
2023/06/21 10:18:28;;;;;;;7.38;4.15;;;;;;;19.29;100.00;97548.88;4997404;28;20049;-61
2023/06/21 10:21:06;;;;;;;10.88;3.90;;;;;;;19.19;100.00;97549.88;4996059;28;20039;-62
2023/06/21 10:23:36;;;;;;;8.85;4.47;;;;;;;19.12;100.00;97554.16;4993970;28;20038;-62
2023/06/21 10:26:11;;;;;;;15.90;5.03;;;;;;;19.08;100.00;97584.94;4992155;28;20093;-61
2023/06/21 10:28:41;;;;;;;8.68;4.82;;;;;;;19.18;100.00;97580.38;4989776;28;20121;-62
2023/06/21 10:31:12;;;;;;;9.90;4.70;;;;;;;19.41;100.00;97577.72;4992606;28;20402;-61
2023/06/21 10:33:39;;;;;;;8.20;4.32;;;;;;;19.45;100.00;97556.78;4990926;28;20047;-62
2023/06/21 10:36:11;;;;;;;7.68;4.43;;;;;;;19.67;100.00;97561.53;4997791;28;20048;-62
2023/06/21 10:38:39;;;;;;;13.43;5.10;;;;;;;19.91;100.00;97557.75;4992989;28;20550;-61
2023/06/21 10:41:05;;;;;;;8.52;5.00;;;;;;;19.85;100.00;97568.03;5004558;28;20649;-61
2023/06/21 10:43:34;;;;;;;9.05;4.97;;;;;;;20.08;100.00;97579.09;4995871;28;20046;-62
2023/06/21 10:46:03;;;;;;;12.48;5.53;;;;;;;20.22;100.00;97561.72;4995159;28;20045;-62
2023/06/21 10:48:33;;;;;;;8.48;4.40;;;;;;;20.46;100.00;97555.97;4990881;28;20045;-62
2023/06/21 10:51:02;;;;;;;9.27;4.80;;;;;;;20.49;100.00;97549.81;4997103;28;20489;-62
2023/06/21 10:53:35;;;;;;;8.85;4.55;;;;;;;20.64;100.00;97542.31;4989907;28;20064;-62
2023/06/21 10:56:05;;;;;;;12.30;5.22;;;;;;;20.87;100.00;97539.50;4990082;28;20557;-62
2023/06/21 10:58:32;;;;;;;9.68;3.90;;;;;;;21.12;100.00;97534.47;4989353;28;20046;-62
2023/06/21 11:00:59;;;;;;;14.63;4.05;;;;;;;21.43;100.00;97547.38;4989022;28;20097;-63
2023/06/21 11:03:27;;;;;;;8.57;4.38;;;;;;;21.47;100.00;97536.53;4991913;28;20493;-63
2023/06/21 11:05:56;;;;;;;6.32;3.88;;;;;;;21.61;100.00;97537.22;4992537;28;20073;-63
2023/06/21 11:08:30;;;;;;;7.68;3.83;;;;;;;21.64;100.00;97535.75;4996551;28;20046;-62
2023/06/21 11:10:57;;;;;;;6.10;3.30;;;;;;;21.55;100.00;97538.50;4989918;28;20052;-62
2023/06/21 11:13:34;;;;;;;7.55;3.83;;;;;;;21.83;100.00;97549.28;4992661;28;20115;-62
2023/06/21 11:16:13;;;;;;;7.32;3.90;;;;;;;;;;4996444;28;20040;-62
2023/06/21 11:18:43;;;;;;;7.80;4.10;;;;;;;22.25;100.00;97553.53;4991060;28;20579;-62
2023/06/21 11:21:10;;;;;;;6.93;3.75;;;;;;;22.25;100.00;97551.56;4991375;28;20121;-62
2023/06/21 11:23:50;;;;;;;6.20;3.25;;;;;;;22.56;100.00;97560.81;4988911;28;20497;-63
2023/06/21 11:26:18;;;;;;;9.35;3.70;;;;;;;22.55;93.78;97562.75;4995454;28;20121;-62
2023/06/21 11:28:47;;;;;;;8.45;3.80;;;;;;;22.54;98.00;97566.63;4991008;28;20164;-63
2023/06/21 11:31:18;;;;;;;6.75;3.55;;;;;;;22.17;98.01;97563.41;4997087;28;20125;-61
2023/06/21 11:33:48;;;;;;;6.80;4.22;;;;;;;22.37;91.81;97563.91;4994873;28;20121;-63
2023/06/21 11:36:17;;;;;;;6.22;3.83;;;;;;;22.86;96.91;97563.69;4997652;28;20112;-62
2023/06/21 11:38:59;;;;;;;8.77;4.57;;;;;;;23.10;97.57;97559.53;5001589;28;20069;-62